sensor_id;sensor_type;location;lat;lon;timestamp;P1;durP1;ratioP1;P2;durP2;ratioP2
26951;SDS011;14507;52.418;13.398;2023-04-12T00:02:06;10.40;;;3.35;;
26951;SDS011;14507;52.418;13.398;2023-04-12T00:04:32;12.07;;;3.65;;
26951;SDS011;14507;52.418;13.398;2023-04-12T00:06:59;8.30;;;2.80;;
26951;SDS011;14507;52.418;13.398;2023-04-12T00:09:26;5.60;;;2.58;;
26951;SDS011;14507;52.418;13.398;2023-04-12T00:11:55;10.02;;;2.97;;
26951;SDS011;14507;52.418;13.398;2023-04-12T00:14:27;8.25;;;2.97;;
26951;SDS011;14507;52.418;13.398;2023-04-12T00:16:53;11.30;;;3.97;;
26951;SDS011;14507;52.418;13.398;2023-04-12T00:19:22;16.10;;;3.90;;
26951;SDS011;14507;52.418;13.398;2023-04-12T00:21:49;15.38;;;4.93;;
26951;SDS011;14507;52.418;13.398;2023-04-12T00:24:15;13.88;;;5.53;;
26951;SDS011;14507;52.418;13.398;2023-04-12T00:26:41;14.52;;;5.60;;
26951;SDS011;14507;52.418;13.398;2023-04-12T00:29:06;16.90;;;5.45;;
26951;SDS011;14507;52.418;13.398;2023-04-12T00:31:32;14.60;;;5.43;;
26951;SDS011;14507;52.418;13.398;2023-04-12T00:33:57;11.68;;;4.10;;
26951;SDS011;14507;52.418;13.398;2023-04-12T00:36:23;11.95;;;3.97;;
26951;SDS011;14507;52.418;13.398;2023-04-12T00:38:49;10.63;;;4.47;;
26951;SDS011;14507;52.418;13.398;2023-04-12T00:41:16;14.27;;;4.60;;
26951;SDS011;14507;52.418;13.398;2023-04-12T00:43:41;14.80;;;5.22;;
26951;SDS011;14507;52.418;13.398;2023-04-12T00:46:07;13.63;;;4.85;;
26951;SDS011;14507;52.418;13.398;2023-04-12T00:48:33;12.98;;;4.20;;
26951;SDS011;14507;52.418;13.398;2023-04-12T00:51:00;11.60;;;4.22;;
26951;SDS011;14507;52.418;13.398;2023-04-12T00:53:27;11.38;;;4.18;;
26951;SDS011;14507;52.418;13.398;2023-04-12T00:55:53;14.07;;;4.32;;
26951;SDS011;14507;52.418;13.398;2023-04-12T00:58:20;8.77;;;3.10;;
26951;SDS011;14507;52.418;13.398;2023-04-12T01:00:48;11.23;;;3.28;;
26951;SDS011;14507;52.418;13.398;2023-04-12T01:03:16;6.78;;;2.95;;
26951;SDS011;14507;52.418;13.398;2023-04-12T01:08:26;9.40;;;3.50;;
26951;SDS011;14507;52.418;13.398;2023-04-12T01:11:08;11.43;;;5.32;;
26951;SDS011;14507;52.418;13.398;2023-04-12T01:13:40;18.50;;;5.43;;
26951;SDS011;14507;52.418;13.398;2023-04-12T01:18:39;5.75;;;2.83;;
26951;SDS011;14507;52.418;13.398;2023-04-12T01:21:12;7.13;;;2.55;;
26951;SDS011;14507;52.418;13.398;2023-04-12T01:23:57;6.70;;;2.67;;
26951;SDS011;14507;52.418;13.398;2023-04-12T01:26:33;6.55;;;2.58;;
26951;SDS011;14507;52.418;13.398;2023-04-12T01:29:09;9.27;;;2.63;;
26951;SDS011;14507;52.418;13.398;2023-04-12T01:31:37;9.13;;;3.00;;
26951;SDS011;14507;52.418;13.398;2023-04-12T01:34:05;8.13;;;2.65;;
26951;SDS011;14507;52.418;13.398;2023-04-12T01:36:35;5.72;;;2.45;;
26951;SDS011;14507;52.418;13.398;2023-04-12T01:39:03;7.57;;;2.70;;
26951;SDS011;14507;52.418;13.398;2023-04-12T01:41:31;6.63;;;2.70;;
26951;SDS011;14507;52.418;13.398;2023-04-12T01:43:57;8.20;;;3.47;;
26951;SDS011;14507;52.418;13.398;2023-04-12T01:46:22;7.72;;;3.30;;
26951;SDS011;14507;52.418;13.398;2023-04-12T01:48:49;8.05;;;2.60;;
26951;SDS011;14507;52.418;13.398;2023-04-12T01:54:07;10.32;;;2.90;;
26951;SDS011;14507;52.418;13.398;2023-04-12T01:56:40;9.07;;;3.05;;
26951;SDS011;14507;52.418;13.398;2023-04-12T01:59:11;9.20;;;3.10;;
26951;SDS011;14507;52.418;13.398;2023-04-12T02:01:40;7.50;;;2.72;;
26951;SDS011;14507;52.418;13.398;2023-04-12T02:04:07;9.63;;;2.90;;
26951;SDS011;14507;52.418;13.398;2023-04-12T02:06:34;7.22;;;3.10;;
26951;SDS011;14507;52.418;13.398;2023-04-12T02:09:02;7.87;;;3.00;;
26951;SDS011;14507;52.418;13.398;2023-04-12T02:11:30;8.93;;;2.83;;
26951;SDS011;14507;52.418;13.398;2023-04-12T02:13:56;8.32;;;3.22;;
26951;SDS011;14507;52.418;13.398;2023-04-12T02:16:21;7.30;;;3.10;;
26951;SDS011;14507;52.418;13.398;2023-04-12T02:18:50;6.75;;;3.30;;
26951;SDS011;14507;52.418;13.398;2023-04-12T02:21:16;8.82;;;3.17;;
26951;SDS011;14507;52.418;13.398;2023-04-12T02:23:42;10.18;;;3.45;;
26951;SDS011;14507;52.418;13.398;2023-04-12T02:26:11;6.85;;;3.08;;
26951;SDS011;14507;52.418;13.398;2023-04-12T02:28:37;6.80;;;3.22;;
26951;SDS011;14507;52.418;13.398;2023-04-12T02:31:06;6.55;;;2.92;;
26951;SDS011;14507;52.418;13.398;2023-04-12T02:33:32;8.25;;;3.10;;
26951;SDS011;14507;52.418;13.398;2023-04-12T02:35:58;9.07;;;3.70;;
26951;SDS011;14507;52.418;13.398;2023-04-12T02:38:26;7.40;;;3.10;;
26951;SDS011;14507;52.418;13.398;2023-04-12T02:40:53;6.03;;;3.10;;
26951;SDS011;14507;52.418;13.398;2023-04-12T02:43:18;7.95;;;3.17;;
26951;SDS011;14507;52.418;13.398;2023-04-12T02:45:45;6.43;;;3.03;;
26951;SDS011;14507;52.418;13.398;2023-04-12T02:48:11;9.00;;;3.20;;
26951;SDS011;14507;52.418;13.398;2023-04-12T02:50:36;10.60;;;3.30;;
26951;SDS011;14507;52.418;13.398;2023-04-12T02:53:02;8.95;;;3.55;;
26951;SDS011;14507;52.418;13.398;2023-04-12T02:55:28;8.90;;;3.25;;
26951;SDS011;14507;52.418;13.398;2023-04-12T02:57:54;8.10;;;3.10;;
26951;SDS011;14507;52.418;13.398;2023-04-12T03:00:21;8.88;;;3.20;;
26951;SDS011;14507;52.418;13.398;2023-04-12T03:02:47;7.18;;;3.25;;
26951;SDS011;14507;52.418;13.398;2023-04-12T03:05:16;12.25;;;3.53;;
26951;SDS011;14507;52.418;13.398;2023-04-12T03:07:42;11.48;;;4.28;;
26951;SDS011;14507;52.418;13.398;2023-04-12T03:10:09;11.75;;;4.45;;
26951;SDS011;14507;52.418;13.398;2023-04-12T03:12:37;8.27;;;3.92;;
26951;SDS011;14507;52.418;13.398;2023-04-12T03:15:03;13.35;;;3.85;;
26951;SDS011;14507;52.418;13.398;2023-04-12T03:17:29;11.23;;;3.85;;
26951;SDS011;14507;52.418;13.398;2023-04-12T03:19:55;7.97;;;3.50;;
26951;SDS011;14507;52.418;13.398;2023-04-12T03:22:22;9.85;;;3.78;;
26951;SDS011;14507;52.418;13.398;2023-04-12T03:24:49;8.75;;;3.78;;
26951;SDS011;14507;52.418;13.398;2023-04-12T03:27:15;10.32;;;3.20;;
26951;SDS011;14507;52.418;13.398;2023-04-12T03:29:41;11.80;;;4.20;;
26951;SDS011;14507;52.418;13.398;2023-04-12T03:32:06;7.47;;;3.25;;
26951;SDS011;14507;52.418;13.398;2023-04-12T03:34:33;14.50;;;4.25;;
26951;SDS011;14507;52.418;13.398;2023-04-12T03:36:59;7.53;;;3.83;;
26951;SDS011;14507;52.418;13.398;2023-04-12T03:39:25;9.85;;;3.60;;
26951;SDS011;14507;52.418;13.398;2023-04-12T03:41:51;8.52;;;3.63;;
26951;SDS011;14507;52.418;13.398;2023-04-12T03:44:17;11.52;;;4.10;;
26951;SDS011;14507;52.418;13.398;2023-04-12T03:46:43;9.57;;;4.03;;
26951;SDS011;14507;52.418;13.398;2023-04-12T03:49:09;11.93;;;5.00;;
26951;SDS011;14507;52.418;13.398;2023-04-12T03:51:35;12.80;;;4.35;;
26951;SDS011;14507;52.418;13.398;2023-04-12T03:54:06;13.77;;;4.80;;
26951;SDS011;14507;52.418;13.398;2023-04-12T03:56:35;7.70;;;4.10;;
26951;SDS011;14507;52.418;13.398;2023-04-12T03:59:02;8.27;;;3.97;;
26951;SDS011;14507;52.418;13.398;2023-04-12T04:01:28;9.40;;;4.50;;
26951;SDS011;14507;52.418;13.398;2023-04-12T04:03:54;9.98;;;4.47;;
26951;SDS011;14507;52.418;13.398;2023-04-12T04:06:20;9.50;;;4.63;;
26951;SDS011;14507;52.418;13.398;2023-04-12T04:08:47;9.80;;;5.00;;
26951;SDS011;14507;52.418;13.398;2023-04-12T04:11:12;10.90;;;5.05;;
26951;SDS011;14507;52.418;13.398;2023-04-12T04:13:38;12.80;;;5.65;;
26951;SDS011;14507;52.418;13.398;2023-04-12T04:16:04;9.43;;;4.95;;
26951;SDS011;14507;52.418;13.398;2023-04-12T04:18:30;8.10;;;4.80;;
26951;SDS011;14507;52.418;13.398;2023-04-12T04:20:57;11.10;;;5.10;;
26951;SDS011;14507;52.418;13.398;2023-04-12T04:23:23;16.45;;;5.60;;
26951;SDS011;14507;52.418;13.398;2023-04-12T04:25:49;9.65;;;4.70;;
26951;SDS011;14507;52.418;13.398;2023-04-12T04:28:17;13.32;;;5.22;;
26951;SDS011;14507;52.418;13.398;2023-04-12T04:30:43;11.73;;;5.35;;
26951;SDS011;14507;52.418;13.398;2023-04-12T04:33:10;11.80;;;4.93;;
26951;SDS011;14507;52.418;13.398;2023-04-12T04:35:39;11.10;;;5.70;;
26951;SDS011;14507;52.418;13.398;2023-04-12T04:38:06;11.45;;;5.60;;
26951;SDS011;14507;52.418;13.398;2023-04-12T04:40:32;14.98;;;6.72;;
26951;SDS011;14507;52.418;13.398;2023-04-12T04:42:57;16.95;;;5.60;;
26951;SDS011;14507;52.418;13.398;2023-04-12T04:45:23;11.40;;;5.40;;
26951;SDS011;14507;52.418;13.398;2023-04-12T04:47:54;12.60;;;5.22;;
26951;SDS011;14507;52.418;13.398;2023-04-12T04:50:21;11.48;;;5.47;;
26951;SDS011;14507;52.418;13.398;2023-04-12T04:52:47;14.82;;;5.90;;
26951;SDS011;14507;52.418;13.398;2023-04-12T04:55:14;12.57;;;6.07;;
26951;SDS011;14507;52.418;13.398;2023-04-12T04:57:48;11.02;;;5.60;;
26951;SDS011;14507;52.418;13.398;2023-04-12T05:00:14;10.05;;;5.10;;
26951;SDS011;14507;52.418;13.398;2023-04-12T05:02:40;15.07;;;5.32;;
26951;SDS011;14507;52.418;13.398;2023-04-12T05:05:07;14.25;;;5.32;;
26951;SDS011;14507;52.418;13.398;2023-04-12T05:07:34;14.17;;;5.67;;
26951;SDS011;14507;52.418;13.398;2023-04-12T05:10:01;11.23;;;5.72;;
26951;SDS011;14507;52.418;13.398;2023-04-12T05:12:27;12.18;;;5.72;;
26951;SDS011;14507;52.418;13.398;2023-04-12T05:14:53;15.43;;;6.25;;
26951;SDS011;14507;52.418;13.398;2023-04-12T05:17:18;14.05;;;5.57;;
26951;SDS011;14507;52.418;13.398;2023-04-12T05:19:44;13.30;;;5.68;;
26951;SDS011;14507;52.418;13.398;2023-04-12T05:22:10;14.05;;;5.55;;
26951;SDS011;14507;52.418;13.398;2023-04-12T05:24:36;10.23;;;5.13;;
26951;SDS011;14507;52.418;13.398;2023-04-12T05:27:02;13.40;;;5.13;;
26951;SDS011;14507;52.418;13.398;2023-04-12T05:29:28;8.73;;;4.43;;
26951;SDS011;14507;52.418;13.398;2023-04-12T05:31:53;10.38;;;4.97;;
26951;SDS011;14507;52.418;13.398;2023-04-12T05:34:19;14.10;;;4.70;;
26951;SDS011;14507;52.418;13.398;2023-04-12T05:36:45;14.10;;;4.80;;
26951;SDS011;14507;52.418;13.398;2023-04-12T05:39:10;9.13;;;4.13;;
26951;SDS011;14507;52.418;13.398;2023-04-12T05:41:36;10.40;;;4.40;;
26951;SDS011;14507;52.418;13.398;2023-04-12T05:44:01;12.55;;;4.25;;
26951;SDS011;14507;52.418;13.398;2023-04-12T05:46:27;10.07;;;3.72;;
26951;SDS011;14507;52.418;13.398;2023-04-12T05:48:54;7.93;;;3.33;;
26951;SDS011;14507;52.418;13.398;2023-04-12T05:51:20;11.20;;;3.63;;
26951;SDS011;14507;52.418;13.398;2023-04-12T05:53:45;8.00;;;3.20;;
26951;SDS011;14507;52.418;13.398;2023-04-12T05:56:11;6.70;;;3.55;;
26951;SDS011;14507;52.418;13.398;2023-04-12T05:58:37;8.98;;;3.80;;
26951;SDS011;14507;52.418;13.398;2023-04-12T06:01:03;8.63;;;3.42;;
26951;SDS011;14507;52.418;13.398;2023-04-12T06:03:29;7.82;;;3.10;;
26951;SDS011;14507;52.418;13.398;2023-04-12T06:05:55;8.48;;;3.38;;
26951;SDS011;14507;52.418;13.398;2023-04-12T06:08:21;7.30;;;3.10;;
26951;SDS011;14507;52.418;13.398;2023-04-12T06:10:47;8.48;;;3.15;;
26951;SDS011;14507;52.418;13.398;2023-04-12T06:13:13;7.22;;;2.92;;
26951;SDS011;14507;52.418;13.398;2023-04-12T06:15:38;11.18;;;3.10;;
26951;SDS011;14507;52.418;13.398;2023-04-12T06:18:05;7.78;;;3.00;;
26951;SDS011;14507;52.418;13.398;2023-04-12T06:20:31;5.33;;;2.93;;
26951;SDS011;14507;52.418;13.398;2023-04-12T06:22:57;8.65;;;3.10;;
26951;SDS011;14507;52.418;13.398;2023-04-12T06:25:23;10.55;;;3.08;;
26951;SDS011;14507;52.418;13.398;2023-04-12T06:27:48;6.78;;;3.22;;
26951;SDS011;14507;52.418;13.398;2023-04-12T06:30:14;6.65;;;3.00;;
26951;SDS011;14507;52.418;13.398;2023-04-12T06:32:40;5.68;;;2.65;;
26951;SDS011;14507;52.418;13.398;2023-04-12T06:35:06;6.30;;;2.70;;
26951;SDS011;14507;52.418;13.398;2023-04-12T06:37:32;9.02;;;3.38;;
26951;SDS011;14507;52.418;13.398;2023-04-12T06:39:58;7.03;;;3.53;;
26951;SDS011;14507;52.418;13.398;2023-04-12T06:42:23;7.95;;;3.30;;
26951;SDS011;14507;52.418;13.398;2023-04-12T06:44:49;6.78;;;3.50;;
26951;SDS011;14507;52.418;13.398;2023-04-12T06:47:15;9.07;;;3.40;;
26951;SDS011;14507;52.418;13.398;2023-04-12T06:49:40;10.00;;;3.90;;
26951;SDS011;14507;52.418;13.398;2023-04-12T06:52:06;8.50;;;3.38;;
26951;SDS011;14507;52.418;13.398;2023-04-12T06:54:32;7.40;;;3.50;;
26951;SDS011;14507;52.418;13.398;2023-04-12T06:57:01;10.02;;;3.47;;
26951;SDS011;14507;52.418;13.398;2023-04-12T06:59:27;10.48;;;3.95;;
26951;SDS011;14507;52.418;13.398;2023-04-12T07:01:53;11.38;;;3.90;;
26951;SDS011;14507;52.418;13.398;2023-04-12T07:04:18;5.97;;;3.50;;
26951;SDS011;14507;52.418;13.398;2023-04-12T07:06:45;8.07;;;3.50;;
26951;SDS011;14507;52.418;13.398;2023-04-12T07:09:10;9.75;;;3.63;;
26951;SDS011;14507;52.418;13.398;2023-04-12T07:11:36;8.50;;;3.72;;
26951;SDS011;14507;52.418;13.398;2023-04-12T07:14:02;8.52;;;3.30;;
26951;SDS011;14507;52.418;13.398;2023-04-12T07:16:30;9.18;;;3.47;;
26951;SDS011;14507;52.418;13.398;2023-04-12T07:18:56;9.18;;;3.38;;
26951;SDS011;14507;52.418;13.398;2023-04-12T07:21:23;6.97;;;3.08;;
26951;SDS011;14507;52.418;13.398;2023-04-12T07:23:48;7.45;;;3.22;;
26951;SDS011;14507;52.418;13.398;2023-04-12T07:26:15;6.97;;;2.65;;
26951;SDS011;14507;52.418;13.398;2023-04-12T07:28:42;8.38;;;2.80;;
26951;SDS011;14507;52.418;13.398;2023-04-12T07:31:08;7.28;;;2.28;;
26951;SDS011;14507;52.418;13.398;2023-04-12T07:33:33;7.65;;;2.60;;
26951;SDS011;14507;52.418;13.398;2023-04-12T07:36:01;11.53;;;2.60;;
26951;SDS011;14507;52.418;13.398;2023-04-12T07:38:27;9.07;;;2.42;;
26951;SDS011;14507;52.418;13.398;2023-04-12T07:40:53;5.72;;;1.90;;
26951;SDS011;14507;52.418;13.398;2023-04-12T07:43:19;5.15;;;1.80;;
26951;SDS011;14507;52.418;13.398;2023-04-12T07:45:45;4.35;;;1.80;;
26951;SDS011;14507;52.418;13.398;2023-04-12T07:48:11;8.98;;;2.25;;
26951;SDS011;14507;52.418;13.398;2023-04-12T07:50:37;8.65;;;2.00;;
26951;SDS011;14507;52.418;13.398;2023-04-12T07:53:16;6.88;;;1.63;;
26951;SDS011;14507;52.418;13.398;2023-04-12T07:55:50;5.03;;;1.80;;
26951;SDS011;14507;52.418;13.398;2023-04-12T07:58:17;5.63;;;1.35;;
26951;SDS011;14507;52.418;13.398;2023-04-12T08:00:43;8.07;;;1.95;;
26951;SDS011;14507;52.418;13.398;2023-04-12T08:03:13;6.47;;;1.90;;
26951;SDS011;14507;52.418;13.398;2023-04-12T08:05:40;5.18;;;1.73;;
26951;SDS011;14507;52.418;13.398;2023-04-12T08:08:07;5.93;;;1.50;;
26951;SDS011;14507;52.418;13.398;2023-04-12T08:10:39;7.07;;;1.40;;
26951;SDS011;14507;52.418;13.398;2023-04-12T08:13:05;5.90;;;1.42;;
26951;SDS011;14507;52.418;13.398;2023-04-12T08:15:30;4.95;;;1.60;;
26951;SDS011;14507;52.418;13.398;2023-04-12T08:17:56;6.28;;;1.67;;
26951;SDS011;14507;52.418;13.398;2023-04-12T08:20:22;6.40;;;1.90;;
26951;SDS011;14507;52.418;13.398;2023-04-12T08:22:48;5.82;;;1.55;;
26951;SDS011;14507;52.418;13.398;2023-04-12T08:25:14;6.75;;;1.52;;
26951;SDS011;14507;52.418;13.398;2023-04-12T08:27:40;7.43;;;1.60;;
26951;SDS011;14507;52.418;13.398;2023-04-12T08:30:07;5.57;;;1.70;;
26951;SDS011;14507;52.418;13.398;2023-04-12T08:32:34;6.63;;;1.30;;
26951;SDS011;14507;52.418;13.398;2023-04-12T08:35:01;5.47;;;1.27;;
26951;SDS011;14507;52.418;13.398;2023-04-12T08:37:27;4.57;;;1.30;;
26951;SDS011;14507;52.418;13.398;2023-04-12T08:39:53;6.60;;;1.20;;
26951;SDS011;14507;52.418;13.398;2023-04-12T08:42:18;9.18;;;1.50;;
26951;SDS011;14507;52.418;13.398;2023-04-12T08:44:45;11.57;;;1.55;;
26951;SDS011;14507;52.418;13.398;2023-04-12T08:47:10;5.10;;;1.13;;
26951;SDS011;14507;52.418;13.398;2023-04-12T08:49:36;6.10;;;1.15;;
26951;SDS011;14507;52.418;13.398;2023-04-12T08:52:03;8.65;;;1.40;;
26951;SDS011;14507;52.418;13.398;2023-04-12T08:54:33;4.82;;;1.02;;
26951;SDS011;14507;52.418;13.398;2023-04-12T08:57:00;5.43;;;1.10;;
26951;SDS011;14507;52.418;13.398;2023-04-12T08:59:27;8.25;;;1.40;;
26951;SDS011;14507;52.418;13.398;2023-04-12T09:01:54;5.82;;;1.17;;
26951;SDS011;14507;52.418;13.398;2023-04-12T09:04:20;5.05;;;1.30;;
26951;SDS011;14507;52.418;13.398;2023-04-12T09:06:46;4.45;;;1.35;;
26951;SDS011;14507;52.418;13.398;2023-04-12T09:09:12;6.85;;;1.60;;
26951;SDS011;14507;52.418;13.398;2023-04-12T09:11:38;11.07;;;1.40;;
26951;SDS011;14507;52.418;13.398;2023-04-12T09:14:14;8.35;;;1.30;;
26951;SDS011;14507;52.418;13.398;2023-04-12T09:16:46;6.97;;;1.30;;
26951;SDS011;14507;52.418;13.398;2023-04-12T09:19:12;5.35;;;1.23;;
26951;SDS011;14507;52.418;13.398;2023-04-12T09:21:50;5.20;;;1.30;;
26951;SDS011;14507;52.418;13.398;2023-04-12T09:24:20;7.72;;;1.50;;
26951;SDS011;14507;52.418;13.398;2023-04-12T09:29:30;6.55;;;1.63;;
26951;SDS011;14507;52.418;13.398;2023-04-12T09:31:59;7.63;;;1.33;;
26951;SDS011;14507;52.418;13.398;2023-04-12T09:34:29;8.70;;;1.60;;
26951;SDS011;14507;52.418;13.398;2023-04-12T09:36:55;3.67;;;1.13;;
26951;SDS011;14507;52.418;13.398;2023-04-12T09:39:42;6.63;;;1.48;;
26951;SDS011;14507;52.418;13.398;2023-04-12T09:42:08;4.85;;;1.13;;
26951;SDS011;14507;52.418;13.398;2023-04-12T09:44:35;6.72;;;1.25;;
26951;SDS011;14507;52.418;13.398;2023-04-12T09:47:01;6.82;;;1.45;;
26951;SDS011;14507;52.418;13.398;2023-04-12T09:50:02;6.90;;;1.67;;
26951;SDS011;14507;52.418;13.398;2023-04-12T09:52:21;5.72;;;1.20;;
26951;SDS011;14507;52.418;13.398;2023-04-12T09:54:47;8.60;;;1.40;;
26951;SDS011;14507;52.418;13.398;2023-04-12T09:57:13;5.43;;;1.33;;
26951;SDS011;14507;52.418;13.398;2023-04-12T09:59:42;6.55;;;1.70;;
26951;SDS011;14507;52.418;13.398;2023-04-12T10:02:16;5.43;;;1.33;;
26951;SDS011;14507;52.418;13.398;2023-04-12T10:04:43;7.63;;;1.38;;
26951;SDS011;14507;52.418;13.398;2023-04-12T10:07:13;7.45;;;1.60;;
26951;SDS011;14507;52.418;13.398;2023-04-12T10:09:40;8.50;;;1.33;;
26951;SDS011;14507;52.418;13.398;2023-04-12T10:12:06;5.97;;;1.35;;
26951;SDS011;14507;52.418;13.398;2023-04-12T10:14:33;9.00;;;1.50;;
26951;SDS011;14507;52.418;13.398;2023-04-12T10:17:00;8.13;;;1.42;;
26951;SDS011;14507;52.418;13.398;2023-04-12T10:19:27;6.05;;;1.50;;
26951;SDS011;14507;52.418;13.398;2023-04-12T10:21:57;6.78;;;1.63;;
26951;SDS011;14507;52.418;13.398;2023-04-12T10:24:24;5.05;;;1.52;;
26951;SDS011;14507;52.418;13.398;2023-04-12T10:26:52;6.68;;;1.73;;
26951;SDS011;14507;52.418;13.398;2023-04-12T10:29:27;6.45;;;1.52;;
26951;SDS011;14507;52.418;13.398;2023-04-12T10:31:54;8.40;;;1.92;;
26951;SDS011;14507;52.418;13.398;2023-04-12T10:34:22;8.70;;;1.48;;
26951;SDS011;14507;52.418;13.398;2023-04-12T10:39:35;9.68;;;1.73;;
26951;SDS011;14507;52.418;13.398;2023-04-12T10:44:44;9.45;;;2.10;;
26951;SDS011;14507;52.418;13.398;2023-04-12T10:47:10;7.47;;;2.03;;
26951;SDS011;14507;52.418;13.398;2023-04-12T10:49:36;13.45;;;1.77;;
26951;SDS011;14507;52.418;13.398;2023-04-12T10:52:09;9.05;;;2.22;;
26951;SDS011;14507;52.418;13.398;2023-04-12T10:54:36;5.72;;;1.70;;
26951;SDS011;14507;52.418;13.398;2023-04-12T10:57:02;10.18;;;2.05;;
26951;SDS011;14507;52.418;13.398;2023-04-12T11:02:18;5.95;;;1.63;;
26951;SDS011;14507;52.418;13.398;2023-04-12T11:07:41;4.70;;;1.63;;
26951;SDS011;14507;52.418;13.398;2023-04-12T11:10:12;9.40;;;1.90;;
26951;SDS011;14507;52.418;13.398;2023-04-12T11:12:46;12.80;;;1.95;;
26951;SDS011;14507;52.418;13.398;2023-04-12T11:15:31;3.72;;;1.30;;
26951;SDS011;14507;52.418;13.398;2023-04-12T11:17:58;9.70;;;1.45;;
26951;SDS011;14507;52.418;13.398;2023-04-12T11:20:25;8.77;;;1.65;;
26951;SDS011;14507;52.418;13.398;2023-04-12T11:22:53;6.78;;;1.55;;
26951;SDS011;14507;52.418;13.398;2023-04-12T11:25:19;6.38;;;1.60;;
26951;SDS011;14507;52.418;13.398;2023-04-12T11:27:51;6.32;;;1.63;;
26951;SDS011;14507;52.418;13.398;2023-04-12T11:30:18;7.78;;;1.15;;
26951;SDS011;14507;52.418;13.398;2023-04-12T11:32:45;9.27;;;1.60;;
26951;SDS011;14507;52.418;13.398;2023-04-12T11:35:12;10.93;;;1.85;;
26951;SDS011;14507;52.418;13.398;2023-04-12T11:37:39;7.68;;;1.63;;
26951;SDS011;14507;52.418;13.398;2023-04-12T11:40:04;6.15;;;1.48;;
26951;SDS011;14507;52.418;13.398;2023-04-12T11:42:31;10.95;;;1.75;;
26951;SDS011;14507;52.418;13.398;2023-04-12T11:44:57;5.43;;;1.17;;
26951;SDS011;14507;52.418;13.398;2023-04-12T11:47:23;5.70;;;1.38;;
26951;SDS011;14507;52.418;13.398;2023-04-12T11:49:51;7.25;;;1.30;;
26951;SDS011;14507;52.418;13.398;2023-04-12T11:52:18;8.38;;;1.48;;
26951;SDS011;14507;52.418;13.398;2023-04-12T11:54:49;7.95;;;1.55;;
26951;SDS011;14507;52.418;13.398;2023-04-12T11:57:16;7.22;;;1.50;;
26951;SDS011;14507;52.418;13.398;2023-04-12T11:59:46;7.07;;;1.50;;
26951;SDS011;14507;52.418;13.398;2023-04-12T12:02:12;7.05;;;1.20;;
26951;SDS011;14507;52.418;13.398;2023-04-12T12:04:41;6.32;;;1.38;;
26951;SDS011;14507;52.418;13.398;2023-04-12T12:07:11;8.18;;;1.77;;
26951;SDS011;14507;52.418;13.398;2023-04-12T12:09:38;6.60;;;1.52;;
26951;SDS011;14507;52.418;13.398;2023-04-12T12:12:05;4.10;;;1.40;;
26951;SDS011;14507;52.418;13.398;2023-04-12T12:14:32;7.13;;;1.30;;
26951;SDS011;14507;52.418;13.398;2023-04-12T12:17:00;4.95;;;1.10;;
26951;SDS011;14507;52.418;13.398;2023-04-12T12:19:27;4.15;;;1.38;;
26951;SDS011;14507;52.418;13.398;2023-04-12T12:24:45;5.85;;;1.30;;
26951;SDS011;14507;52.418;13.398;2023-04-12T12:27:18;6.68;;;1.80;;
26951;SDS011;14507;52.418;13.398;2023-04-12T12:29:50;7.35;;;1.40;;
26951;SDS011;14507;52.418;13.398;2023-04-12T12:32:17;6.97;;;1.30;;
26951;SDS011;14507;52.418;13.398;2023-04-12T12:34:50;7.95;;;1.33;;
26951;SDS011;14507;52.418;13.398;2023-04-12T12:37:23;4.88;;;1.42;;
26951;SDS011;14507;52.418;13.398;2023-04-12T12:40:00;6.22;;;1.30;;
26951;SDS011;14507;52.418;13.398;2023-04-12T12:42:42;6.18;;;1.17;;
26951;SDS011;14507;52.418;13.398;2023-04-12T12:45:09;7.72;;;1.10;;
26951;SDS011;14507;52.418;13.398;2023-04-12T12:50:12;5.03;;;1.20;;
26951;SDS011;14507;52.418;13.398;2023-04-12T12:52:38;6.78;;;1.50;;
26951;SDS011;14507;52.418;13.398;2023-04-12T12:55:04;6.32;;;1.50;;
26951;SDS011;14507;52.418;13.398;2023-04-12T12:57:30;6.03;;;1.60;;
26951;SDS011;14507;52.418;13.398;2023-04-12T12:59:56;4.22;;;1.33;;
26951;SDS011;14507;52.418;13.398;2023-04-12T13:02:21;7.10;;;1.63;;
26951;SDS011;14507;52.418;13.398;2023-04-12T13:04:47;8.10;;;1.45;;
26951;SDS011;14507;52.418;13.398;2023-04-12T13:07:12;4.88;;;1.48;;
26951;SDS011;14507;52.418;13.398;2023-04-12T13:09:38;4.88;;;1.23;;
26951;SDS011;14507;52.418;13.398;2023-04-12T13:12:04;9.15;;;1.85;;
26951;SDS011;14507;52.418;13.398;2023-04-12T13:14:30;3.85;;;1.15;;
26951;SDS011;14507;52.418;13.398;2023-04-12T13:16:56;5.80;;;1.00;;
26951;SDS011;14507;52.418;13.398;2023-04-12T13:19:21;5.40;;;1.50;;
26951;SDS011;14507;52.418;13.398;2023-04-12T13:21:47;5.50;;;1.77;;
26951;SDS011;14507;52.418;13.398;2023-04-12T13:24:12;6.75;;;1.63;;
26951;SDS011;14507;52.418;13.398;2023-04-12T13:26:38;3.05;;;0.90;;
26951;SDS011;14507;52.418;13.398;2023-04-12T13:29:05;5.15;;;1.38;;
26951;SDS011;14507;52.418;13.398;2023-04-12T13:31:30;7.75;;;1.33;;
26951;SDS011;14507;52.418;13.398;2023-04-12T13:33:56;5.70;;;1.20;;
26951;SDS011;14507;52.418;13.398;2023-04-12T13:36:21;8.40;;;1.65;;
26951;SDS011;14507;52.418;13.398;2023-04-12T13:38:47;7.25;;;1.75;;
26951;SDS011;14507;52.418;13.398;2023-04-12T13:41:12;4.88;;;1.33;;
26951;SDS011;14507;52.418;13.398;2023-04-12T13:43:39;7.05;;;1.48;;
26951;SDS011;14507;52.418;13.398;2023-04-12T13:46:05;7.35;;;1.60;;
26951;SDS011;14507;52.418;13.398;2023-04-12T13:48:31;3.97;;;1.27;;
26951;SDS011;14507;52.418;13.398;2023-04-12T13:50:57;10.75;;;1.58;;
26951;SDS011;14507;52.418;13.398;2023-04-12T13:53:23;4.93;;;1.20;;
26951;SDS011;14507;52.418;13.398;2023-04-12T13:55:49;6.15;;;1.60;;
26951;SDS011;14507;52.418;13.398;2023-04-12T13:58:15;6.30;;;1.13;;
26951;SDS011;14507;52.418;13.398;2023-04-12T14:00:41;4.03;;;1.33;;
26951;SDS011;14507;52.418;13.398;2023-04-12T14:03:06;4.50;;;1.30;;
26951;SDS011;14507;52.418;13.398;2023-04-12T14:05:32;7.57;;;1.50;;
26951;SDS011;14507;52.418;13.398;2023-04-12T14:07:57;4.85;;;1.50;;
26951;SDS011;14507;52.418;13.398;2023-04-12T14:10:23;4.95;;;1.38;;
26951;SDS011;14507;52.418;13.398;2023-04-12T14:12:49;7.80;;;1.40;;
26951;SDS011;14507;52.418;13.398;2023-04-12T14:15:14;7.03;;;1.35;;
26951;SDS011;14507;52.418;13.398;2023-04-12T14:17:40;5.60;;;1.20;;
26951;SDS011;14507;52.418;13.398;2023-04-12T14:20:07;8.60;;;1.50;;
26951;SDS011;14507;52.418;13.398;2023-04-12T14:25:00;5.40;;;1.50;;
26951;SDS011;14507;52.418;13.398;2023-04-12T14:27:26;9.13;;;1.50;;
26951;SDS011;14507;52.418;13.398;2023-04-12T14:29:52;6.53;;;1.35;;
26951;SDS011;14507;52.418;13.398;2023-04-12T14:32:18;6.47;;;1.33;;
26951;SDS011;14507;52.418;13.398;2023-04-12T14:34:43;3.53;;;1.45;;
26951;SDS011;14507;52.418;13.398;2023-04-12T14:37:10;5.47;;;1.65;;
26951;SDS011;14507;52.418;13.398;2023-04-12T14:39:36;6.15;;;1.63;;
26951;SDS011;14507;52.418;13.398;2023-04-12T14:42:01;5.88;;;1.60;;
26951;SDS011;14507;52.418;13.398;2023-04-12T14:44:27;5.70;;;1.42;;
26951;SDS011;14507;52.418;13.398;2023-04-12T14:46:53;4.60;;;1.55;;
26951;SDS011;14507;52.418;13.398;2023-04-12T14:49:19;6.75;;;1.98;;
26951;SDS011;14507;52.418;13.398;2023-04-12T14:51:45;4.32;;;1.23;;
26951;SDS011;14507;52.418;13.398;2023-04-12T14:54:10;6.63;;;1.60;;
26951;SDS011;14507;52.418;13.398;2023-04-12T14:56:36;6.47;;;1.40;;
26951;SDS011;14507;52.418;13.398;2023-04-12T14:59:02;10.48;;;1.55;;
26951;SDS011;14507;52.418;13.398;2023-04-12T15:01:28;5.80;;;1.40;;